Time,TemperatureF,DewpointF,PressureIn,WindDirection,WindDirectionDegrees,WindSpeedMPH,WindSpeedGustMPH,Humidity,HourlyPrecipIn,Conditions,Clouds,dailyrainin,SoftwareType,DateUTC
2013-01-20 00:04:00,23.6,14.0,30.35,NW,315,0.0,-999.0,66,-99.99,,,0.00,weatherlink.com 1.10,2013-01-20 07:04:00,
2013-01-20 00:19:00,23.5,14.0,30.33,NW,315,0.0,-999.0,67,-99.99,,,0.00,weatherlink.com 1.10,2013-01-20 07:19:00,
2013-01-20 00:34:00,23.3,14.0,30.33,NW,315,0.0,-999.0,67,-99.99,,,0.00,weatherlink.com 1.10,2013-01-20 07:34:00,
2013-01-20 00:49:00,23.2,14.0,30.33,NW,315,0.0,-999.0,68,-99.99,,,0.00,weatherlink.com 1.10,2013-01-20 07:49:00,
2013-01-20 01:04:00,23.6,14.0,30.32,NW,315,0.0,-999.0,68,-99.99,,,0.00,weatherlink.com 1.10,2013-01-20 08:04:00,
2013-01-20 01:19:00,24.8,15.0,30.31,NW,315,1.0,-999.0,65,-99.99,,,0.00,weatherlink.com 1.10,2013-01-20 08:19:00,
2013-01-20 01:34:00,25.4,14.0,30.30,NW,315,0.0,-999.0,63,-99.99,,,0.00,weatherlink.com 1.10,2013-01-20 08:34:00,
2013-01-20 01:49:00,25.4,14.0,30.30,NW,318,0.0,-999.0,62,-99.99,,,0.00,weatherlink.com 1.10,2013-01-20 08:49:00,
2013-01-20 02:04:00,25.4,14.0,30.30,North,4,0.0,-999.0,61,-99.99,,,0.00,weatherlink.com 1.10,2013-01-20 09:04:00,
2013-01-20 02:19:00,24.7,13.0,30.29,North,4,0.0,-999.0,61,-99.99,,,0.00,weatherlink.com 1.10,2013-01-20 09:19:00,
2013-01-20 02:34:00,24.2,13.0,30.30,North,4,0.0,-999.0,63,-99.99,,,0.00,weatherlink.com 1.10,2013-01-20 09:34:00,
2013-01-20 02:49:00,23.9,13.0,30.30,North,1,0.0,-999.0,64,-99.99,,,0.00,weatherlink.com 1.10,2013-01-20 09:49:00,
2013-01-20 03:04:00,23.6,13.0,30.30,North,1,0.0,-999.0,64,-99.99,,,0.00,weatherlink.com 1.10,2013-01-20 10:04:00,
2013-01-20 03:19:00,23.5,13.0,30.31,North,1,0.0,-999.0,64,-99.99,,,0.00,weatherlink.com 1.10,2013-01-20 10:19:00,
2013-01-20 03:34:00,23.0,12.0,30.31,North,1,0.0,-999.0,64,-99.99,,,0.00,weatherlink.com 1.10,2013-01-20 10:34:00,
2013-01-20 03:50:00,22.4,12.0,30.31,North,1,0.0,-999.0,64,-99.99,,,0.00,weatherlink.com 1.10,2013-01-20 10:50:00,
2013-01-20 04:05:00,21.8,12.0,30.32,North,1,0.0,-999.0,65,-99.99,,,0.00,weatherlink.com 1.10,2013-01-20 11:05:00,
2013-01-20 04:20:00,21.0,11.0,30.34,North,1,0.0,-999.0,66,-99.99,,,0.00,weatherlink.com 1.10,2013-01-20 11:20:00,
2013-01-20 04:35:00,20.5,11.0,30.34,North,1,0.0,-999.0,68,-99.99,,,0.00,weatherlink.com 1.10,2013-01-20 11:35:00,
2013-01-20 04:50:00,20.2,12.0,30.35,North,1,0.0,-999.0,69,-99.99,,,0.00,weatherlink.com 1.10,2013-01-20 11:50:00,
2013-01-20 05:05:00,19.7,11.0,30.35,North,1,0.0,-999.0,68,-99.99,,,0.00,weatherlink.com 1.10,2013-01-20 12:05:00,
2013-01-20 05:20:00,19.5,11.0,30.38,North,1,0.0,-999.0,70,-99.99,,,0.00,weatherlink.com 1.10,2013-01-20 12:20:00,
2013-01-20 05:38:00,19.5,11.0,30.38,North,1,0.0,-999.0,68,-99.99,,,0.00,weatherlink.com 1.10,2013-01-20 12:38:00,
2013-01-20 05:50:00,19.1,11.0,30.39,North,1,0.0,-999.0,70,-99.99,,,0.00,weatherlink.com 1.10,2013-01-20 12:50:00,
2013-01-20 06:05:00,18.8,11.0,30.38,North,1,0.0,-999.0,70,-99.99,,,0.00,weatherlink.com 1.10,2013-01-20 13:05:00,
2013-01-20 06:20:00,18.3,10.0,30.43,North,1,0.0,-999.0,71,-99.99,,,0.00,weatherlink.com 1.10,2013-01-20 13:20:00,
2013-01-20 06:35:00,17.7,10.0,30.43,North,1,0.0,-999.0,71,-99.99,,,0.00,weatherlink.com 1.10,2013-01-20 13:35:00,
2013-01-20 06:50:00,16.9,9.0,30.43,North,1,0.0,-999.0,70,-99.99,,,0.00,weatherlink.com 1.10,2013-01-20 13:50:00,
2013-01-20 07:05:00,16.2,8.0,30.43,North,1,0.0,-999.0,71,-99.99,,,0.00,weatherlink.com 1.10,2013-01-20 14:05:00,
2013-01-20 07:20:00,15.6,7.0,30.47,North,1,0.0,-999.0,70,-99.99,,,0.00,weatherlink.com 1.10,2013-01-20 14:20:00,
2013-01-20 07:35:00,15.1,7.0,30.48,North,1,0.0,-999.0,71,-99.99,,,0.00,weatherlink.com 1.10,2013-01-20 14:35:00,
2013-01-20 07:50:00,14.9,7.0,30.48,North,1,0.0,-999.0,71,-99.99,,,0.00,weatherlink.com 1.10,2013-01-20 14:50:00,
2013-01-20 08:05:00,15.4,8.0,30.48,North,1,0.0,-999.0,73,-99.99,,,0.00,weatherlink.com 1.10,2013-01-20 15:05:00,
2013-01-20 08:20:00,17.3,11.0,30.49,North,1,0.0,-999.0,76,-99.99,,,0.00,weatherlink.com 1.10,2013-01-20 15:20:00,
2013-01-20 08:35:00,21.6,15.0,30.47,North,1,0.0,-999.0,75,-99.99,,,0.00,weatherlink.com 1.10,2013-01-20 15:35:00,
2013-01-20 08:50:00,25.6,15.0,30.45,North,6,0.0,-999.0,65,-99.99,,,0.00,weatherlink.com 1.10,2013-01-20 15:50:00,
2013-01-20 09:05:00,27.6,15.0,30.45,NE,34,0.0,-999.0,59,-99.99,,,0.00,weatherlink.com 1.10,2013-01-20 16:05:00,
2013-01-20 09:20:00,29.0,15.0,30.46,North,349,0.0,-999.0,55,-99.99,,,0.00,weatherlink.com 1.10,2013-01-20 16:20:00,
2013-01-20 09:35:00,31.0,15.0,30.44,NNE,21,0.0,-999.0,51,-99.99,,,0.00,weatherlink.com 1.10,2013-01-20 16:35:00,
2013-01-20 09:50:00,32.9,13.0,30.43,North,356,4.0,-999.0,44,-99.99,,,0.00,weatherlink.com 1.10,2013-01-20 16:50:00,
2013-01-20 10:05:00,34.3,13.0,30.42,NNW,333,0.0,-999.0,42,-99.99,,,0.00,weatherlink.com 1.10,2013-01-20 17:05:00,
2013-01-20 10:20:00,35.6,13.0,30.41,North,357,0.0,-999.0,39,-99.99,,,0.00,weatherlink.com 1.10,2013-01-20 17:20:00,
2013-01-20 10:35:00,36.5,13.0,30.40,North,359,0.0,-999.0,38,-99.99,,,0.00,weatherlink.com 1.10,2013-01-20 17:35:00,
2013-01-20 10:50:00,38.0,14.0,30.38,NNW,336,1.0,-999.0,37,-99.99,,,0.00,weatherlink.com 1.10,2013-01-20 17:50:00,
2013-01-20 11:05:00,39.5,14.0,30.36,NNW,337,0.0,-999.0,35,-99.99,,,0.00,weatherlink.com 1.10,2013-01-20 18:05:00,
2013-01-20 11:21:00,41.8,13.0,30.34,NNW,337,0.0,-999.0,31,-99.99,,,0.00,weatherlink.com 1.10,2013-01-20 18:21:00,
2013-01-20 11:36:00,43.8,13.0,30.31,NNW,335,0.0,-999.0,29,-99.99,,,0.00,weatherlink.com 1.10,2013-01-20 18:36:00,
2013-01-20 11:51:00,45.8,14.0,30.29,WNW,284,0.0,-999.0,28,-99.99,,,0.00,weatherlink.com 1.10,2013-01-20 18:51:00,
2013-01-20 12:06:00,48.0,14.0,30.26,SW,215,1.0,-999.0,25,-99.99,,,0.00,weatherlink.com 1.10,2013-01-20 19:06:00,
2013-01-20 12:21:00,49.4,14.0,30.23,SW,215,1.0,-999.0,24,-99.99,,,0.00,weatherlink.com 1.10,2013-01-20 19:21:00,
2013-01-20 12:36:00,49.8,14.0,30.22,ESE,110,0.0,-999.0,24,-99.99,,,0.00,weatherlink.com 1.10,2013-01-20 19:36:00,
2013-01-20 12:51:00,50.8,14.0,30.21,ESE,121,1.0,-999.0,23,-99.99,,,0.00,weatherlink.com 1.10,2013-01-20 19:51:00,
2013-01-20 13:06:00,51.9,14.0,30.18,SE,134,0.0,-999.0,22,-99.99,,,0.00,weatherlink.com 1.10,2013-01-20 20:06:00,
2013-01-20 13:21:00,52.2,13.0,30.16,ESE,121,0.0,-999.0,21,-99.99,,,0.00,weatherlink.com 1.10,2013-01-20 20:21:00,
2013-01-20 13:36:00,52.8,13.0,30.15,SSE,162,0.0,-999.0,20,-99.99,,,0.00,weatherlink.com 1.10,2013-01-20 20:36:00,
2013-01-20 14:06:00,53.5,13.0,30.14,ESE,120,0.0,-999.0,20,-99.99,,,0.00,weatherlink.com 1.10,2013-01-20 21:06:00,
2013-01-20 14:21:00,54.7,13.0,30.14,South,182,1.0,-999.0,19,-99.99,,,0.00,weatherlink.com 1.10,2013-01-20 21:21:00,
2013-01-20 14:36:00,55.9,13.0,30.13,SE,145,2.0,-999.0,18,-99.99,,,0.00,weatherlink.com 1.10,2013-01-20 21:36:00,
2013-01-20 14:51:00,56.0,12.0,30.12,SE,127,0.0,-999.0,17,-99.99,,,0.00,weatherlink.com 1.10,2013-01-20 21:51:00,
2013-01-20 15:06:00,56.3,12.0,30.12,SE,138,0.0,-999.0,17,-99.99,,,0.00,weatherlink.com 1.10,2013-01-20 22:06:00,
2013-01-20 15:21:00,56.6,11.0,30.13,ESE,112,0.0,-999.0,16,-99.99,,,0.00,weatherlink.com 1.10,2013-01-20 22:21:00,
2013-01-20 15:36:00,57.0,11.0,30.13,SSE,155,0.0,-999.0,16,-99.99,,,0.00,weatherlink.com 1.10,2013-01-20 22:36:00,
2013-01-20 15:51:00,56.7,11.0,30.13,SSW,212,0.0,-999.0,16,-99.99,,,0.00,weatherlink.com 1.10,2013-01-20 22:51:00,
2013-01-20 16:21:00,53.6,11.0,30.15,SSW,210,0.0,-999.0,18,-99.99,,,0.00,weatherlink.com 1.10,2013-01-20 23:21:00,
2013-01-20 16:51:00,52.3,4.0,30.17,NW,318,5.0,-999.0,14,-99.99,,,0.00,weatherlink.com 1.10,2013-01-20 23:51:00,
2013-01-20 17:06:00,51.7,4.0,30.17,NW,326,0.0,-999.0,14,-99.99,,,0.00,weatherlink.com 1.10,2013-01-21 00:06:00,
2013-01-20 17:20:00,50.7,6.0,30.19,NW,326,0.0,-999.0,16,-99.99,,,0.00,weatherlink.com 1.10,2013-01-21 00:20:00,
2013-01-20 17:37:00,48.6,5.0,30.20,NW,326,0.0,-999.0,17,-99.99,,,0.00,weatherlink.com 1.10,2013-01-21 00:37:00,
2013-01-20 17:51:00,47.4,7.0,30.21,NW,311,0.0,-999.0,19,-99.99,,,0.00,weatherlink.com 1.10,2013-01-21 00:51:00,
2013-01-20 18:06:00,46.5,6.0,30.22,NW,311,0.0,-999.0,19,-99.99,,,0.00,weatherlink.com 1.10,2013-01-21 01:06:00,
2013-01-20 18:21:00,44.1,7.0,30.25,NW,311,0.0,-999.0,22,-99.99,,,0.00,weatherlink.com 1.10,2013-01-21 01:21:00,
2013-01-20 18:36:00,41.9,7.0,30.27,NW,311,0.0,-999.0,24,-99.99,,,0.00,weatherlink.com 1.10,2013-01-21 01:36:00,
2013-01-20 19:06:00,37.6,8.0,30.30,NW,306,0.0,-999.0,29,-99.99,,,0.00,weatherlink.com 1.10,2013-01-21 02:06:00,
2013-01-20 19:21:00,36.5,8.0,30.32,NW,306,0.0,-999.0,30,-99.99,,,0.00,weatherlink.com 1.10,2013-01-21 02:21:00,
2013-01-20 19:36:00,35.2,7.0,30.33,NW,308,0.0,-999.0,31,-99.99,,,0.00,weatherlink.com 1.10,2013-01-21 02:36:00,
2013-01-20 19:51:00,33.7,7.0,30.35,NW,308,0.0,-999.0,33,-99.99,,,0.00,weatherlink.com 1.10,2013-01-21 02:51:00,
2013-01-20 20:07:00,33.1,7.0,30.35,NW,308,0.0,-999.0,34,-99.99,,,0.00,weatherlink.com 1.10,2013-01-21 03:07:00,
2013-01-20 20:22:00,32.5,8.0,30.29,NW,308,0.0,-999.0,36,-99.99,,,0.00,weatherlink.com 1.10,2013-01-21 03:22:00,
2013-01-20 20:37:00,31.9,8.0,30.30,NW,308,0.0,-999.0,37,-99.99,,,0.00,weatherlink.com 1.10,2013-01-21 03:37:00,
2013-01-20 21:06:00,30.0,9.0,30.32,NW,308,0.0,-999.0,42,-99.99,,,0.00,weatherlink.com 1.10,2013-01-21 04:06:00,
2013-01-20 21:21:00,29.3,10.0,30.27,NW,308,0.0,-999.0,44,-99.99,,,0.00,weatherlink.com 1.10,2013-01-21 04:21:00,
2013-01-20 21:36:00,29.1,10.0,30.29,NW,308,0.0,-999.0,45,-99.99,,,0.00,weatherlink.com 1.10,2013-01-21 04:36:00,
2013-01-20 22:06:00,30.6,10.0,30.28,NW,308,0.0,-999.0,43,-99.99,,,0.00,weatherlink.com 1.10,2013-01-21 05:06:00,
2013-01-20 22:22:00,30.7,10.0,30.26,NW,308,0.0,-999.0,42,-99.99,,,0.00,weatherlink.com 1.10,2013-01-21 05:22:00,
2013-01-20 22:51:00,28.2,9.0,30.26,NW,308,0.0,-999.0,45,-99.99,,,0.00,weatherlink.com 1.10,2013-01-21 05:51:00,
2013-01-20 23:06:00,26.7,9.0,30.28,NW,308,0.0,-999.0,48,-99.99,,,0.00,weatherlink.com 1.10,2013-01-21 06:06:00,
2013-01-20 23:21:00,25.7,9.0,30.25,NW,308,0.0,-999.0,50,-99.99,,,0.00,weatherlink.com 1.10,2013-01-21 06:21:00,
2013-01-20 23:36:00,24.8,9.0,30.25,NW,308,0.0,-999.0,51,-99.99,,,0.00,weatherlink.com 1.10,2013-01-21 06:36:00,